Historique des mesures à Cassis (13260), France
Quotidien Résumé Janvier 29, 2021 Unités:  Métrique/US    US   Métrique
Quotidien Hebdomadaire Mensuel Annuel
  Maximum: Minimum: Moyenne:
Température: 82 °F /  27.8 °C 68.2 °F /  20.1 °C 75 °F /  23.9 °C
Point de rosée: 63.5 °F /  17.5 °C 52 °F /  11.1 °C 58.5 °F /  14.7 °C
Humidité: 77% 42% 58%
Vitesse du vent: 17.2mph /  27.7km/h - 7.8mph /  12.6km/h
Rafales: 27.7mph /  44.6km/h - -
Vent- - West
Pression: 29.9 in /  1011.9 hPa 29.8 in /  1010.0 hPa -
Précipitations: 0.08 in /  2.0 mm    
Historical Graphs
 
 
Mesures pour : Janvier 29, 2021
Heure Temperature Point de rosée Pression Vent Vitesse du vent Rafales Humidité Pluie (par heure)
00:11 72.7 °F /  22.6 °C 63.5 °F /  17.5 °C 29.8in /  1010.3hPa North 4mph /  6.5km/h 8.5mph /  13.7km/h 73% 0in /  0.0mm
01:11 71.4 °F /  21.9 °C 62.6 °F /  17 °C 29.8in /  1010.5hPa WNW 3.6mph /  5.8km/h 7.6mph /  12.2km/h 74% 0in /  0.0mm
02:11 71.4 °F /  21.9 °C 61.9 °F /  16.6 °C 29.8in /  1010.6hPa Calm     72% 0in /  0.0mm
03:11 70.5 °F /  21.4 °C 61 °F /  16.1 °C 29.8in /  1010.2hPa Calm     72% 0in /  0.0mm
04:11 70.3 °F /  21.3 °C 60.8 °F /  16 °C 29.8in /  1010.1hPa Calm     72% 0in /  0.0mm
05:11 68.5 °F /  20.3 °C 59.9 °F /  15.5 °C 29.8in /  1010.0hPa NW 1.4mph /  2.2km/h 3.4mph /  5.4km/h 74% 0in /  0.0mm
06:11 68.2 °F /  20.1 °C 60.8 °F /  16 °C 29.8in /  1010.2hPa Calm   0.9mph /  1.4km/h 77% 0in /  0.0mm
07:11 69.3 °F /  20.7 °C 61 °F /  16.1 °C 29.8in /  1010.6hPa NW 8.1mph /  13km/h 10.7mph /  17.3km/h 75% 0in /  0.0mm
08:11 77.5 °F /  25.3 °C 62.1 °F /  16.7 °C 29.9in /  1010.9hPa WNW 10.7mph /  17.3km/h 17.5mph /  28.1km/h 59% 0in /  0.0mm
09:11 73.6 °F /  23.1 °C 57.4 °F /  14.1 °C 29.9in /  1011.3hPa NW 16.3mph /  26.3km/h 20.6mph /  33.1km/h 57% 0in /  0.0mm
10:11 76.5 °F /  24.7 °C 56.5 °F /  13.6 °C 29.9in /  1011.3hPa West 11.2mph /  18km/h 19.4mph /  31.3km/h 50% 0in /  0.0mm
11:11 80.4 °F /  26.9 °C 57.7 °F /  14.3 °C 29.9in /  1011.4hPa WSW 13.2mph /  21.2km/h 17.5mph /  28.1km/h 46% 0in /  0.0mm
12:11 82 °F /  27.8 °C 56.7 °F /  13.7 °C 29.9in /  1011.3hPa WNW 4.9mph /  7.9km/h 17mph /  27.4km/h 42% 0in /  0.0mm
13:11 80.6 °F /  27 °C 57.7 °F /  14.3 °C 29.9in /  1011.4hPa NW 10.9mph /  17.6km/h 18.3mph /  29.5km/h 46% 0.08in /  2.0mm
14:11 79 °F /  26.1 °C 58.3 °F /  14.6 °C 29.9in /  1011.2hPa West 17.2mph /  27.7km/h 27.7mph /  44.6km/h 49% 0in /  0.0mm
15:11 78.4 °F /  25.8 °C 57.7 °F /  14.3 °C 29.9in /  1011.3hPa WNW 5.8mph /  9.4km/h 16.8mph /  27km/h 49% 0in /  0.0mm
16:11 79 °F /  26.1 °C 57.6 °F /  14.2 °C 29.9in /  1011.2hPa West 15.2mph /  24.5km/h 18.8mph /  30.2km/h 48% 0in /  0.0mm
17:11 79.9 °F /  26.6 °C 56.5 °F /  13.6 °C 29.9in /  1011.1hPa WNW 9.4mph /  15.1km/h 18.3mph /  29.5km/h 45% 0in /  0.0mm
18:11 78.6 °F /  25.9 °C 55.4 °F /  13 °C 29.8in /  1010.6hPa West 10.5mph /  16.9km/h 20.1mph /  32.4km/h 45% 0in /  0.0mm
19:11 77 °F /  25 °C 58.1 °F /  14.5 °C 29.8in /  1010.7hPa West 10.9mph /  17.6km/h 23.2mph /  37.4km/h 52% 0in /  0.0mm
20:11 75.4 °F /  24.1 °C 56.7 °F /  13.7 °C 29.9in /  1011.2hPa WNW 10.3mph /  16.6km/h 19.7mph /  31.7km/h 52% 0in /  0.0mm
21:11 74.3 °F /  23.5 °C 55 °F /  12.8 °C 29.9in /  1011.3hPa West 16.3mph /  26.3km/h 18.6mph /  29.9km/h 51% 0in /  0.0mm
22:11 72.7 °F /  22.6 °C 55.4 °F /  13 °C 29.9in /  1011.8hPa West 2.9mph /  4.7km/h 9.2mph /  14.8km/h 55% 0in /  0.0mm
23:11 72.9 °F /  22.7 °C 52 °F /  11.1 °C 29.9in /  1011.9hPa WNW 4.7mph /  7.6km/h 19.3mph /  31km/h 48% 0in /  0.0mm
Observations météo à CASSIS
WU-History script by Weather Underground - 2 mb